Terminal Aerodrome Forecast
Issued by NWS

Home | Current Version | Previous Version | Text Only | Print | Product List | Glossary On
Versions: 1 2 3 4 5 6 7 8 9 10 11 12 13 14 15 16 17 18 19 20 21 22 23 24 25 26 27 28 29 30 31 32 33 34 35
000
FTUS44 KHGX 301303 AAC
TAFIAH
TAF AMD
KIAH 301303Z 3013/3118 06006KT P6SM BKN020 BKN040 BKN250
     FM301700 08009KT P6SM VCSH BKN045
     FM310100 11009KT P6SM FEW035
     FM310400 11004KT P6SM SCT035 BKN250
     FM311500 10007KT P6SM VCSH BKN015 BKN250=

USA.gov is the U.S. government's official web portal to all federal, state and local government web resources and services.